Marion Reef, Australia
Current Conditions -  °F | °C
As of 7:00 PM on Monday 24 Nov 2014 (Local Time) from YBHM Reporting Station
Broken Clouds Broken Clouds  
Wind Chill: 79°   Ceiling: 7100
Heat Index: 81°   Visibility: 6mi
Dew Point: 70°   Wind: 15mph
Humidity: 74%   Direction: 90°E
Pressure: 29.91"   Gusts: NA
Location:  19.08°S, 152.38°E
Report Text: YBHM 240900Z AUTO 09013KT 9999 // SCT020 BKN071 26/21 Q1013
Loading
Personal Weather Stations






























Interactive Weather Map New forecast layout! Learn more

10-Day Weather Forecast

Advertisements
Track Severe Weather on mobile